sensor_id;sensor_type;location;lat;lon;timestamp;temperature;humidity
23544;DHT22;11950;51.230;4.012;2023-04-07T00:00:20;10.80;99.90
23544;DHT22;11950;51.230;4.012;2023-04-07T00:02:47;10.80;99.90
23544;DHT22;11950;51.230;4.012;2023-04-07T00:05:14;10.80;99.90
23544;DHT22;11950;51.230;4.012;2023-04-07T00:07:40;10.70;99.90
23544;DHT22;11950;51.230;4.012;2023-04-07T00:10:07;10.80;99.90
23544;DHT22;11950;51.230;4.012;2023-04-07T00:12:33;10.70;99.90
23544;DHT22;11950;51.230;4.012;2023-04-07T00:15:01;10.70;99.90
23544;DHT22;11950;51.230;4.012;2023-04-07T00:17:27;10.70;99.90
23544;DHT22;11950;51.230;4.012;2023-04-07T00:19:53;10.70;99.90
23544;DHT22;11950;51.230;4.012;2023-04-07T00:22:20;10.70;99.90
23544;DHT22;11950;51.230;4.012;2023-04-07T00:24:47;10.70;99.90
23544;DHT22;11950;51.230;4.012;2023-04-07T00:27:13;10.70;99.90
23544;DHT22;11950;51.230;4.012;2023-04-07T00:29:39;10.70;99.90
23544;DHT22;11950;51.230;4.012;2023-04-07T00:32:06;10.70;99.90
23544;DHT22;11950;51.230;4.012;2023-04-07T00:34:32;10.80;99.90
23544;DHT22;11950;51.230;4.012;2023-04-07T00:36:58;10.80;99.90
23544;DHT22;11950;51.230;4.012;2023-04-07T00:39:24;10.80;99.90
23544;DHT22;11950;51.230;4.012;2023-04-07T00:41:52;10.70;99.90
23544;DHT22;11950;51.230;4.012;2023-04-07T00:44:18;10.80;99.90
23544;DHT22;11950;51.230;4.012;2023-04-07T00:46:46;10.70;99.90
23544;DHT22;11950;51.230;4.012;2023-04-07T00:49:14;10.70;99.90
23544;DHT22;11950;51.230;4.012;2023-04-07T00:51:43;10.80;99.90
23544;DHT22;11950;51.230;4.012;2023-04-07T00:54:09;10.70;99.90
23544;DHT22;11950;51.230;4.012;2023-04-07T00:56:36;10.70;99.90
23544;DHT22;11950;51.230;4.012;2023-04-07T00:59:05;10.70;99.90
23544;DHT22;11950;51.230;4.012;2023-04-07T01:01:50;10.70;99.90
23544;DHT22;11950;51.230;4.012;2023-04-07T01:04:28;10.70;99.90
23544;DHT22;11950;51.230;4.012;2023-04-07T01:07:05;10.60;99.90
23544;DHT22;11950;51.230;4.012;2023-04-07T01:09:45;10.60;99.90
23544;DHT22;11950;51.230;4.012;2023-04-07T01:14:59;10.60;99.90
23544;DHT22;11950;51.230;4.012;2023-04-07T01:17:44;10.50;99.90
23544;DHT22;11950;51.230;4.012;2023-04-07T01:20:15;10.60;99.90
23544;DHT22;11950;51.230;4.012;2023-04-07T01:22:50;10.50;99.90
23544;DHT22;11950;51.230;4.012;2023-04-07T01:25:34;10.50;99.90
23544;DHT22;11950;51.230;4.012;2023-04-07T01:30:37;10.40;99.90
23544;DHT22;11950;51.230;4.012;2023-04-07T01:33:04;10.40;99.90
23544;DHT22;11950;51.230;4.012;2023-04-07T01:35:33;10.40;99.90
23544;DHT22;11950;51.230;4.012;2023-04-07T01:38:02;10.40;99.90
23544;DHT22;11950;51.230;4.012;2023-04-07T01:40:29;10.40;99.90
23544;DHT22;11950;51.230;4.012;2023-04-07T01:42:56;10.40;99.90
23544;DHT22;11950;51.230;4.012;2023-04-07T01:45:23;10.40;99.90
23544;DHT22;11950;51.230;4.012;2023-04-07T01:47:51;10.40;99.90
23544;DHT22;11950;51.230;4.012;2023-04-07T01:50:20;10.30;99.90
23544;DHT22;11950;51.230;4.012;2023-04-07T01:52:46;10.30;99.90
23544;DHT22;11950;51.230;4.012;2023-04-07T01:55:13;10.30;99.90
23544;DHT22;11950;51.230;4.012;2023-04-07T01:57:53;10.30;99.90
23544;DHT22;11950;51.230;4.012;2023-04-07T02:00:19;10.30;99.90
23544;DHT22;11950;51.230;4.012;2023-04-07T02:02:54;10.30;99.90
23544;DHT22;11950;51.230;4.012;2023-04-07T02:05:23;10.30;99.90
23544;DHT22;11950;51.230;4.012;2023-04-07T02:08:02;10.30;99.90
23544;DHT22;11950;51.230;4.012;2023-04-07T02:10:34;10.30;99.90
23544;DHT22;11950;51.230;4.012;2023-04-07T02:13:08;10.80;99.90
23544;DHT22;11950;51.230;4.012;2023-04-07T02:15:36;10.30;99.90
23544;DHT22;11950;51.230;4.012;2023-04-07T02:18:03;10.30;99.90
23544;DHT22;11950;51.230;4.012;2023-04-07T02:20:31;10.20;99.90
23544;DHT22;11950;51.230;4.012;2023-04-07T02:22:58;10.20;99.90
23544;DHT22;11950;51.230;4.012;2023-04-07T02:25:30;10.20;99.90
23544;DHT22;11950;51.230;4.012;2023-04-07T02:27:58;10.20;99.90
23544;DHT22;11950;51.230;4.012;2023-04-07T02:30:25;10.20;99.90
23544;DHT22;11950;51.230;4.012;2023-04-07T02:32:52;10.20;99.90
23544;DHT22;11950;51.230;4.012;2023-04-07T02:35:19;10.20;99.90
23544;DHT22;11950;51.230;4.012;2023-04-07T02:37:46;10.20;99.90
23544;DHT22;11950;51.230;4.012;2023-04-07T02:40:13;10.20;99.90
23544;DHT22;11950;51.230;4.012;2023-04-07T02:42:40;10.20;99.90
23544;DHT22;11950;51.230;4.012;2023-04-07T02:45:07;10.20;99.90
23544;DHT22;11950;51.230;4.012;2023-04-07T02:47:34;10.20;99.90
23544;DHT22;11950;51.230;4.012;2023-04-07T02:50:01;10.20;99.90
23544;DHT22;11950;51.230;4.012;2023-04-07T02:52:27;10.20;99.90
23544;DHT22;11950;51.230;4.012;2023-04-07T02:54:53;10.10;99.90
23544;DHT22;11950;51.230;4.012;2023-04-07T02:57:23;10.10;99.90
23544;DHT22;11950;51.230;4.012;2023-04-07T02:59:54;10.10;99.90
23544;DHT22;11950;51.230;4.012;2023-04-07T03:02:25;10.10;99.90
23544;DHT22;11950;51.230;4.012;2023-04-07T03:04:51;10.10;99.90
23544;DHT22;11950;51.230;4.012;2023-04-07T03:07:19;10.00;99.90
23544;DHT22;11950;51.230;4.012;2023-04-07T03:09:48;10.00;99.90
23544;DHT22;11950;51.230;4.012;2023-04-07T03:12:16;10.00;99.90
23544;DHT22;11950;51.230;4.012;2023-04-07T03:14:43;10.00;99.90
23544;DHT22;11950;51.230;4.012;2023-04-07T03:17:10;10.00;99.90
23544;DHT22;11950;51.230;4.012;2023-04-07T03:19:36;10.00;99.90
23544;DHT22;11950;51.230;4.012;2023-04-07T03:22:02;9.90;99.90
23544;DHT22;11950;51.230;4.012;2023-04-07T03:24:34;9.90;99.90
23544;DHT22;11950;51.230;4.012;2023-04-07T03:27:01;9.90;99.90
23544;DHT22;11950;51.230;4.012;2023-04-07T03:29:38;9.80;99.90
23544;DHT22;11950;51.230;4.012;2023-04-07T03:32:08;9.70;99.90
23544;DHT22;11950;51.230;4.012;2023-04-07T03:34:34;9.70;99.90
23544;DHT22;11950;51.230;4.012;2023-04-07T03:37:00;9.70;99.90
23544;DHT22;11950;51.230;4.012;2023-04-07T03:39:29;9.60;99.90
23544;DHT22;11950;51.230;4.012;2023-04-07T03:41:58;9.60;99.90
23544;DHT22;11950;51.230;4.012;2023-04-07T03:44:28;9.40;99.90
23544;DHT22;11950;51.230;4.012;2023-04-07T03:46:55;9.30;99.90
23544;DHT22;11950;51.230;4.012;2023-04-07T03:49:23;9.30;99.90
23544;DHT22;11950;51.230;4.012;2023-04-07T03:51:50;9.20;99.90
23544;DHT22;11950;51.230;4.012;2023-04-07T03:54:18;9.20;99.90
23544;DHT22;11950;51.230;4.012;2023-04-07T03:56:44;9.20;99.90
23544;DHT22;11950;51.230;4.012;2023-04-07T03:59:12;9.10;99.90
23544;DHT22;11950;51.230;4.012;2023-04-07T04:01:50;9.10;99.90
23544;DHT22;11950;51.230;4.012;2023-04-07T04:04:17;8.90;99.90
23544;DHT22;11950;51.230;4.012;2023-04-07T04:06:43;8.90;99.90
23544;DHT22;11950;51.230;4.012;2023-04-07T04:09:20;8.80;99.90
23544;DHT22;11950;51.230;4.012;2023-04-07T04:11:48;8.80;99.90
23544;DHT22;11950;51.230;4.012;2023-04-07T04:14:15;8.80;99.90
23544;DHT22;11950;51.230;4.012;2023-04-07T04:16:48;8.70;99.90
23544;DHT22;11950;51.230;4.012;2023-04-07T04:19:38;8.60;99.90
23544;DHT22;11950;51.230;4.012;2023-04-07T04:22:13;8.60;99.90
23544;DHT22;11950;51.230;4.012;2023-04-07T04:24:48;8.50;99.90
23544;DHT22;11950;51.230;4.012;2023-04-07T04:27:14;8.50;99.90
23544;DHT22;11950;51.230;4.012;2023-04-07T04:29:41;8.40;99.90
23544;DHT22;11950;51.230;4.012;2023-04-07T04:32:11;8.40;99.90
23544;DHT22;11950;51.230;4.012;2023-04-07T04:34:38;8.40;99.90
23544;DHT22;11950;51.230;4.012;2023-04-07T04:37:07;8.40;99.90
23544;DHT22;11950;51.230;4.012;2023-04-07T04:39:34;8.40;99.90
23544;DHT22;11950;51.230;4.012;2023-04-07T04:42:00;8.40;99.90
23544;DHT22;11950;51.230;4.012;2023-04-07T04:44:32;8.50;99.90
23544;DHT22;11950;51.230;4.012;2023-04-07T04:47:01;8.50;99.90
23544;DHT22;11950;51.230;4.012;2023-04-07T04:49:28;8.50;99.90
23544;DHT22;11950;51.230;4.012;2023-04-07T04:51:58;8.50;99.90
23544;DHT22;11950;51.230;4.012;2023-04-07T04:54:24;8.50;99.90
23544;DHT22;11950;51.230;4.012;2023-04-07T04:56:51;8.60;99.90
23544;DHT22;11950;51.230;4.012;2023-04-07T04:59:17;8.60;99.90
23544;DHT22;11950;51.230;4.012;2023-04-07T05:02:10;8.60;99.90
23544;DHT22;11950;51.230;4.012;2023-04-07T05:04:37;8.70;99.90
23544;DHT22;11950;51.230;4.012;2023-04-07T05:07:22;8.70;99.90
23544;DHT22;11950;51.230;4.012;2023-04-07T05:09:48;8.70;99.90
23544;DHT22;11950;51.230;4.012;2023-04-07T05:12:17;8.70;99.90
23544;DHT22;11950;51.230;4.012;2023-04-07T05:14:49;8.70;99.90
23544;DHT22;11950;51.230;4.012;2023-04-07T05:17:15;8.70;99.90
23544;DHT22;11950;51.230;4.012;2023-04-07T05:19:42;8.70;99.90
23544;DHT22;11950;51.230;4.012;2023-04-07T05:22:19;8.60;99.90
23544;DHT22;11950;51.230;4.012;2023-04-07T05:24:48;8.70;99.90
23544;DHT22;11950;51.230;4.012;2023-04-07T05:27:14;8.60;99.90
23544;DHT22;11950;51.230;4.012;2023-04-07T05:29:42;8.60;99.90
23544;DHT22;11950;51.230;4.012;2023-04-07T05:32:18;8.60;99.90
23544;DHT22;11950;51.230;4.012;2023-04-07T05:34:44;8.60;99.90
23544;DHT22;11950;51.230;4.012;2023-04-07T05:37:10;8.60;99.90
23544;DHT22;11950;51.230;4.012;2023-04-07T05:39:37;8.70;99.90
23544;DHT22;11950;51.230;4.012;2023-04-07T05:42:06;8.70;99.90
23544;DHT22;11950;51.230;4.012;2023-04-07T05:44:35;8.70;99.90
23544;DHT22;11950;51.230;4.012;2023-04-07T05:47:01;8.70;99.90
23544;DHT22;11950;51.230;4.012;2023-04-07T05:49:32;8.70;99.90
23544;DHT22;11950;51.230;4.012;2023-04-07T05:52:03;8.80;99.90
23544;DHT22;11950;51.230;4.012;2023-04-07T05:54:32;8.80;99.90
23544;DHT22;11950;51.230;4.012;2023-04-07T05:57:01;8.80;99.90
23544;DHT22;11950;51.230;4.012;2023-04-07T05:59:29;8.90;99.90
23544;DHT22;11950;51.230;4.012;2023-04-07T06:01:55;8.90;99.90
23544;DHT22;11950;51.230;4.012;2023-04-07T06:04:22;9.00;99.90
23544;DHT22;11950;51.230;4.012;2023-04-07T06:06:50;9.10;99.90
23544;DHT22;11950;51.230;4.012;2023-04-07T06:09:21;9.20;99.90
23544;DHT22;11950;51.230;4.012;2023-04-07T06:11:47;9.20;99.90
23544;DHT22;11950;51.230;4.012;2023-04-07T06:14:16;9.30;99.90
23544;DHT22;11950;51.230;4.012;2023-04-07T06:16:43;9.30;99.90
23544;DHT22;11950;51.230;4.012;2023-04-07T06:19:10;9.40;99.90
23544;DHT22;11950;51.230;4.012;2023-04-07T06:21:36;9.50;99.90
23544;DHT22;11950;51.230;4.012;2023-04-07T06:24:04;9.50;99.90
23544;DHT22;11950;51.230;4.012;2023-04-07T06:26:34;9.60;99.90
23544;DHT22;11950;51.230;4.012;2023-04-07T06:29:01;9.60;99.90
23544;DHT22;11950;51.230;4.012;2023-04-07T06:31:27;9.70;99.90
23544;DHT22;11950;51.230;4.012;2023-04-07T06:33:54;9.70;99.90
23544;DHT22;11950;51.230;4.012;2023-04-07T06:36:20;9.80;99.90
23544;DHT22;11950;51.230;4.012;2023-04-07T06:38:46;9.80;99.90
23544;DHT22;11950;51.230;4.012;2023-04-07T06:41:13;9.90;99.90
23544;DHT22;11950;51.230;4.012;2023-04-07T06:43:46;9.90;99.90
23544;DHT22;11950;51.230;4.012;2023-04-07T06:46:12;9.90;99.90
23544;DHT22;11950;51.230;4.012;2023-04-07T06:48:39;9.90;99.90
23544;DHT22;11950;51.230;4.012;2023-04-07T06:51:05;10.00;99.90
23544;DHT22;11950;51.230;4.012;2023-04-07T06:53:31;10.00;99.90
23544;DHT22;11950;51.230;4.012;2023-04-07T06:56:10;10.00;99.90
23544;DHT22;11950;51.230;4.012;2023-04-07T06:58:37;10.00;99.90
23544;DHT22;11950;51.230;4.012;2023-04-07T07:01:04;10.10;99.90
23544;DHT22;11950;51.230;4.012;2023-04-07T07:03:31;10.10;99.90
23544;DHT22;11950;51.230;4.012;2023-04-07T07:05:58;10.10;99.90
23544;DHT22;11950;51.230;4.012;2023-04-07T07:08:25;10.10;99.90
23544;DHT22;11950;51.230;4.012;2023-04-07T07:10:52;10.10;99.90
23544;DHT22;11950;51.230;4.012;2023-04-07T07:13:21;10.10;99.90
23544;DHT22;11950;51.230;4.012;2023-04-07T07:15:51;10.20;99.90
23544;DHT22;11950;51.230;4.012;2023-04-07T07:18:18;10.30;99.90
23544;DHT22;11950;51.230;4.012;2023-04-07T07:20:44;10.40;99.90
23544;DHT22;11950;51.230;4.012;2023-04-07T07:23:11;10.50;99.90
23544;DHT22;11950;51.230;4.012;2023-04-07T07:25:37;10.60;99.90
23544;DHT22;11950;51.230;4.012;2023-04-07T07:28:03;10.60;99.90
23544;DHT22;11950;51.230;4.012;2023-04-07T07:30:30;10.60;99.90
23544;DHT22;11950;51.230;4.012;2023-04-07T07:32:56;10.60;99.90
23544;DHT22;11950;51.230;4.012;2023-04-07T07:35:23;10.70;99.90
23544;DHT22;11950;51.230;4.012;2023-04-07T07:37:50;10.70;99.90
23544;DHT22;11950;51.230;4.012;2023-04-07T07:40:17;10.70;99.90
23544;DHT22;11950;51.230;4.012;2023-04-07T07:42:45;10.80;99.90
23544;DHT22;11950;51.230;4.012;2023-04-07T07:45:11;10.80;99.90
23544;DHT22;11950;51.230;4.012;2023-04-07T07:47:39;10.90;99.90
23544;DHT22;11950;51.230;4.012;2023-04-07T07:50:06;10.90;99.90
23544;DHT22;11950;51.230;4.012;2023-04-07T07:52:32;11.00;99.90
23544;DHT22;11950;51.230;4.012;2023-04-07T07:54:58;11.10;99.90
23544;DHT22;11950;51.230;4.012;2023-04-07T07:57:24;11.10;99.90
23544;DHT22;11950;51.230;4.012;2023-04-07T07:59:51;11.20;99.90
23544;DHT22;11950;51.230;4.012;2023-04-07T08:02:18;11.30;99.90
23544;DHT22;11950;51.230;4.012;2023-04-07T08:04:44;11.40;99.90
23544;DHT22;11950;51.230;4.012;2023-04-07T08:07:10;11.50;99.90
23544;DHT22;11950;51.230;4.012;2023-04-07T08:09:37;11.70;99.90
23544;DHT22;11950;51.230;4.012;2023-04-07T08:12:03;11.70;99.90
23544;DHT22;11950;51.230;4.012;2023-04-07T08:14:30;11.80;99.90
23544;DHT22;11950;51.230;4.012;2023-04-07T08:16:56;11.90;99.90
23544;DHT22;11950;51.230;4.012;2023-04-07T08:19:22;12.00;99.90
23544;DHT22;11950;51.230;4.012;2023-04-07T08:21:49;12.00;99.90
23544;DHT22;11950;51.230;4.012;2023-04-07T08:24:15;12.00;99.90
23544;DHT22;11950;51.230;4.012;2023-04-07T08:26:42;12.00;99.90
23544;DHT22;11950;51.230;4.012;2023-04-07T08:29:08;12.00;99.90
23544;DHT22;11950;51.230;4.012;2023-04-07T08:31:34;12.00;99.90
23544;DHT22;11950;51.230;4.012;2023-04-07T08:34:00;12.00;99.90
23544;DHT22;11950;51.230;4.012;2023-04-07T08:36:27;12.00;99.90
23544;DHT22;11950;51.230;4.012;2023-04-07T08:38:53;11.90;99.90
23544;DHT22;11950;51.230;4.012;2023-04-07T08:41:46;11.90;99.90
23544;DHT22;11950;51.230;4.012;2023-04-07T08:44:14;11.80;99.90
23544;DHT22;11950;51.230;4.012;2023-04-07T08:46:41;11.90;99.90
23544;DHT22;11950;51.230;4.012;2023-04-07T08:49:09;11.90;99.90
23544;DHT22;11950;51.230;4.012;2023-04-07T08:51:37;11.90;99.90
23544;DHT22;11950;51.230;4.012;2023-04-07T08:54:10;12.00;99.90
23544;DHT22;11950;51.230;4.012;2023-04-07T08:56:38;12.10;99.90
23544;DHT22;11950;51.230;4.012;2023-04-07T08:59:07;12.20;99.90
23544;DHT22;11950;51.230;4.012;2023-04-07T09:01:36;12.20;99.90
23544;DHT22;11950;51.230;4.012;2023-04-07T09:04:03;12.20;99.90
23544;DHT22;11950;51.230;4.012;2023-04-07T09:06:30;12.30;99.90
23544;DHT22;11950;51.230;4.012;2023-04-07T09:08:57;12.20;99.90
23544;DHT22;11950;51.230;4.012;2023-04-07T09:11:25;12.20;99.90
23544;DHT22;11950;51.230;4.012;2023-04-07T09:13:51;12.20;99.90
23544;DHT22;11950;51.230;4.012;2023-04-07T09:16:18;12.20;99.90
23544;DHT22;11950;51.230;4.012;2023-04-07T09:18:44;12.20;99.90
23544;DHT22;11950;51.230;4.012;2023-04-07T09:21:11;12.20;99.90
23544;DHT22;11950;51.230;4.012;2023-04-07T09:23:40;12.30;99.90
23544;DHT22;11950;51.230;4.012;2023-04-07T09:28:48;12.30;99.90
23544;DHT22;11950;51.230;4.012;2023-04-07T09:31:17;12.30;99.90
23544;DHT22;11950;51.230;4.012;2023-04-07T09:33:47;12.30;99.90
23544;DHT22;11950;51.230;4.012;2023-04-07T09:36:14;12.30;99.90
23544;DHT22;11950;51.230;4.012;2023-04-07T09:38:41;12.30;99.90
23544;DHT22;11950;51.230;4.012;2023-04-07T09:41:13;12.30;99.90
23544;DHT22;11950;51.230;4.012;2023-04-07T09:43:40;12.30;99.90
23544;DHT22;11950;51.230;4.012;2023-04-07T09:46:17;12.30;99.90
23544;DHT22;11950;51.230;4.012;2023-04-07T09:48:45;12.30;99.90
23544;DHT22;11950;51.230;4.012;2023-04-07T09:51:16;12.40;99.90
23544;DHT22;11950;51.230;4.012;2023-04-07T09:53:44;12.40;99.90
23544;DHT22;11950;51.230;4.012;2023-04-07T09:56:17;12.50;99.90
23544;DHT22;11950;51.230;4.012;2023-04-07T09:58:48;12.60;99.90
23544;DHT22;11950;51.230;4.012;2023-04-07T10:01:16;12.60;99.90
23544;DHT22;11950;51.230;4.012;2023-04-07T10:03:44;12.70;99.90
23544;DHT22;11950;51.230;4.012;2023-04-07T10:06:12;12.70;99.90
23544;DHT22;11950;51.230;4.012;2023-04-07T10:08:40;12.90;99.90
23544;DHT22;11950;51.230;4.012;2023-04-07T10:11:08;12.90;99.90
23544;DHT22;11950;51.230;4.012;2023-04-07T10:13:36;13.00;99.90
23544;DHT22;11950;51.230;4.012;2023-04-07T10:16:06;13.00;99.90
23544;DHT22;11950;51.230;4.012;2023-04-07T10:18:34;13.00;99.90
23544;DHT22;11950;51.230;4.012;2023-04-07T10:21:04;13.00;99.90
23544;DHT22;11950;51.230;4.012;2023-04-07T10:26:33;12.90;99.90
23544;DHT22;11950;51.230;4.012;2023-04-07T10:29:09;12.90;99.90
23544;DHT22;11950;51.230;4.012;2023-04-07T10:31:37;12.90;99.90
23544;DHT22;11950;51.230;4.012;2023-04-07T10:34:04;12.90;99.90
23544;DHT22;11950;51.230;4.012;2023-04-07T10:36:31;13.00;99.90
23544;DHT22;11950;51.230;4.012;2023-04-07T10:47:05;13.20;99.90
23544;DHT22;11950;51.230;4.012;2023-04-07T10:49:33;13.20;99.90
23544;DHT22;11950;51.230;4.012;2023-04-07T10:52:26;13.20;99.90
23544;DHT22;11950;51.230;4.012;2023-04-07T10:55:28;13.20;99.90
23544;DHT22;11950;51.230;4.012;2023-04-07T10:58:24;13.30;99.90
23544;DHT22;11950;51.230;4.012;2023-04-07T11:06:03;13.20;99.90
23544;DHT22;11950;51.230;4.012;2023-04-07T11:08:37;13.10;99.90
23544;DHT22;11950;51.230;4.012;2023-04-07T11:11:05;13.10;99.90
23544;DHT22;11950;51.230;4.012;2023-04-07T11:13:49;13.10;99.90
23544;DHT22;11950;51.230;4.012;2023-04-07T11:16:17;13.10;99.90
23544;DHT22;11950;51.230;4.012;2023-04-07T11:18:44;13.10;99.90
23544;DHT22;11950;51.230;4.012;2023-04-07T11:21:16;13.10;99.90
23544;DHT22;11950;51.230;4.012;2023-04-07T11:23:44;13.10;99.90
23544;DHT22;11950;51.230;4.012;2023-04-07T11:26:13;13.10;99.90
23544;DHT22;11950;51.230;4.012;2023-04-07T11:28:47;13.00;99.90
23544;DHT22;11950;51.230;4.012;2023-04-07T11:31:28;13.10;99.90
23544;DHT22;11950;51.230;4.012;2023-04-07T11:34:00;13.00;99.90
23544;DHT22;11950;51.230;4.012;2023-04-07T11:36:28;13.00;99.90
23544;DHT22;11950;51.230;4.012;2023-04-07T11:38:56;13.00;99.90
23544;DHT22;11950;51.230;4.012;2023-04-07T11:41:24;12.90;99.90
23544;DHT22;11950;51.230;4.012;2023-04-07T11:44:10;12.90;99.90
23544;DHT22;11950;51.230;4.012;2023-04-07T11:46:52;12.90;99.90
23544;DHT22;11950;51.230;4.012;2023-04-07T11:49:19;12.90;99.90
23544;DHT22;11950;51.230;4.012;2023-04-07T11:51:46;12.90;99.90
23544;DHT22;11950;51.230;4.012;2023-04-07T11:54:12;13.00;99.90
23544;DHT22;11950;51.230;4.012;2023-04-07T11:56:44;13.00;99.90
23544;DHT22;11950;51.230;4.012;2023-04-07T11:59:20;13.10;99.90
23544;DHT22;11950;51.230;4.012;2023-04-07T12:01:49;13.20;99.90
23544;DHT22;11950;51.230;4.012;2023-04-07T12:04:16;13.20;99.90
23544;DHT22;11950;51.230;4.012;2023-04-07T12:06:44;13.30;99.90
23544;DHT22;11950;51.230;4.012;2023-04-07T12:09:30;13.30;99.90
23544;DHT22;11950;51.230;4.012;2023-04-07T12:11:57;13.40;99.90
23544;DHT22;11950;51.230;4.012;2023-04-07T12:14:25;13.40;99.90
23544;DHT22;11950;51.230;4.012;2023-04-07T12:16:53;13.40;99.90
23544;DHT22;11950;51.230;4.012;2023-04-07T12:19:24;13.50;99.90
23544;DHT22;11950;51.230;4.012;2023-04-07T12:21:50;13.50;99.90
23544;DHT22;11950;51.230;4.012;2023-04-07T12:24:17;13.40;99.90
23544;DHT22;11950;51.230;4.012;2023-04-07T12:26:43;13.30;99.90
23544;DHT22;11950;51.230;4.012;2023-04-07T12:29:10;13.30;99.90
23544;DHT22;11950;51.230;4.012;2023-04-07T12:31:36;13.30;99.90
23544;DHT22;11950;51.230;4.012;2023-04-07T12:34:02;13.20;99.90
23544;DHT22;11950;51.230;4.012;2023-04-07T12:36:29;13.20;99.90
23544;DHT22;11950;51.230;4.012;2023-04-07T12:38:55;13.30;99.90
23544;DHT22;11950;51.230;4.012;2023-04-07T12:41:24;13.20;99.90
23544;DHT22;11950;51.230;4.012;2023-04-07T12:43:50;13.20;99.90
23544;DHT22;11950;51.230;4.012;2023-04-07T12:46:17;13.30;99.90
23544;DHT22;11950;51.230;4.012;2023-04-07T12:48:43;13.20;99.90
23544;DHT22;11950;51.230;4.012;2023-04-07T12:51:10;13.20;99.90
23544;DHT22;11950;51.230;4.012;2023-04-07T12:53:37;13.10;99.90
23544;DHT22;11950;51.230;4.012;2023-04-07T12:56:03;13.10;99.90
23544;DHT22;11950;51.230;4.012;2023-04-07T12:58:30;13.00;99.90
23544;DHT22;11950;51.230;4.012;2023-04-07T13:00:56;12.90;99.90
23544;DHT22;11950;51.230;4.012;2023-04-07T13:03:23;13.00;99.90
23544;DHT22;11950;51.230;4.012;2023-04-07T13:05:49;13.00;99.90
23544;DHT22;11950;51.230;4.012;2023-04-07T13:08:16;13.00;99.90
23544;DHT22;11950;51.230;4.012;2023-04-07T13:10:42;12.90;99.90
23544;DHT22;11950;51.230;4.012;2023-04-07T13:13:08;12.90;99.90
23544;DHT22;11950;51.230;4.012;2023-04-07T13:15:35;12.90;99.90
23544;DHT22;11950;51.230;4.012;2023-04-07T13:18:01;12.90;99.90
23544;DHT22;11950;51.230;4.012;2023-04-07T13:20:28;13.00;99.90
23544;DHT22;11950;51.230;4.012;2023-04-07T13:22:55;13.00;99.90
23544;DHT22;11950;51.230;4.012;2023-04-07T13:25:21;13.00;99.90
23544;DHT22;11950;51.230;4.012;2023-04-07T13:27:48;13.00;99.90
23544;DHT22;11950;51.230;4.012;2023-04-07T13:30:14;13.10;99.90
23544;DHT22;11950;51.230;4.012;2023-04-07T13:32:41;13.00;99.90
23544;DHT22;11950;51.230;4.012;2023-04-07T13:35:07;13.00;99.90
23544;DHT22;11950;51.230;4.012;2023-04-07T13:37:33;13.00;99.90
23544;DHT22;11950;51.230;4.012;2023-04-07T13:39:59;13.00;99.90
23544;DHT22;11950;51.230;4.012;2023-04-07T13:42:26;13.00;99.90
23544;DHT22;11950;51.230;4.012;2023-04-07T13:44:52;13.00;99.90
23544;DHT22;11950;51.230;4.012;2023-04-07T13:47:19;13.00;99.90
23544;DHT22;11950;51.230;4.012;2023-04-07T13:49:47;12.90;99.90
23544;DHT22;11950;51.230;4.012;2023-04-07T13:52:14;13.00;99.90
23544;DHT22;11950;51.230;4.012;2023-04-07T13:54:41;13.00;99.90
23544;DHT22;11950;51.230;4.012;2023-04-07T13:57:08;13.10;99.90
23544;DHT22;11950;51.230;4.012;2023-04-07T13:59:34;13.10;99.90
23544;DHT22;11950;51.230;4.012;2023-04-07T14:02:01;13.10;99.90
23544;DHT22;11950;51.230;4.012;2023-04-07T14:04:27;13.10;99.90
23544;DHT22;11950;51.230;4.012;2023-04-07T14:06:53;13.00;99.90
23544;DHT22;11950;51.230;4.012;2023-04-07T14:09:20;13.00;99.90
23544;DHT22;11950;51.230;4.012;2023-04-07T14:11:46;13.00;99.90
23544;DHT22;11950;51.230;4.012;2023-04-07T14:14:13;13.00;99.90
23544;DHT22;11950;51.230;4.012;2023-04-07T14:16:39;13.00;99.90
23544;DHT22;11950;51.230;4.012;2023-04-07T14:19:06;13.00;99.90
23544;DHT22;11950;51.230;4.012;2023-04-07T14:21:32;13.00;99.90
23544;DHT22;11950;51.230;4.012;2023-04-07T14:23:59;13.00;99.90
23544;DHT22;11950;51.230;4.012;2023-04-07T14:26:25;13.00;99.90
23544;DHT22;11950;51.230;4.012;2023-04-07T14:28:52;13.00;99.90
23544;DHT22;11950;51.230;4.012;2023-04-07T14:31:18;13.00;99.90
23544;DHT22;11950;51.230;4.012;2023-04-07T14:33:45;13.00;99.90
23544;DHT22;11950;51.230;4.012;2023-04-07T14:36:13;13.00;99.90
23544;DHT22;11950;51.230;4.012;2023-04-07T14:38:42;13.00;99.90
23544;DHT22;11950;51.230;4.012;2023-04-07T14:41:08;13.00;99.90
23544;DHT22;11950;51.230;4.012;2023-04-07T14:43:35;12.90;99.90
23544;DHT22;11950;51.230;4.012;2023-04-07T14:46:01;12.90;99.90
23544;DHT22;11950;51.230;4.012;2023-04-07T14:48:28;12.90;99.90
23544;DHT22;11950;51.230;4.012;2023-04-07T14:50:54;12.90;99.90
23544;DHT22;11950;51.230;4.012;2023-04-07T14:53:20;12.90;99.90
23544;DHT22;11950;51.230;4.012;2023-04-07T14:55:47;12.90;99.90
23544;DHT22;11950;51.230;4.012;2023-04-07T14:58:13;12.90;99.90
23544;DHT22;11950;51.230;4.012;2023-04-07T15:00:40;13.00;99.90
23544;DHT22;11950;51.230;4.012;2023-04-07T15:03:06;12.90;99.90
23544;DHT22;11950;51.230;4.012;2023-04-07T15:05:32;12.90;99.90
23544;DHT22;11950;51.230;4.012;2023-04-07T15:07:59;12.80;99.90
23544;DHT22;11950;51.230;4.012;2023-04-07T15:10:26;12.80;99.90
23544;DHT22;11950;51.230;4.012;2023-04-07T15:12:52;12.70;99.90
23544;DHT22;11950;51.230;4.012;2023-04-07T15:15:18;12.60;99.90
23544;DHT22;11950;51.230;4.012;2023-04-07T15:17:44;12.60;99.90
23544;DHT22;11950;51.230;4.012;2023-04-07T15:20:11;12.60;99.90
23544;DHT22;11950;51.230;4.012;2023-04-07T15:22:37;12.60;99.90
23544;DHT22;11950;51.230;4.012;2023-04-07T15:25:04;12.60;99.90
23544;DHT22;11950;51.230;4.012;2023-04-07T15:27:30;12.60;99.90
23544;DHT22;11950;51.230;4.012;2023-04-07T15:29:56;12.60;99.90
23544;DHT22;11950;51.230;4.012;2023-04-07T15:32:23;12.60;99.90
23544;DHT22;11950;51.230;4.012;2023-04-07T15:34:49;12.60;99.90
23544;DHT22;11950;51.230;4.012;2023-04-07T15:37:16;12.60;99.90
23544;DHT22;11950;51.230;4.012;2023-04-07T15:39:43;12.60;99.90
23544;DHT22;11950;51.230;4.012;2023-04-07T15:42:10;12.50;99.90
23544;DHT22;11950;51.230;4.012;2023-04-07T15:44:37;12.50;99.90
23544;DHT22;11950;51.230;4.012;2023-04-07T15:47:05;12.50;99.90
23544;DHT22;11950;51.230;4.012;2023-04-07T15:49:32;12.50;99.90
23544;DHT22;11950;51.230;4.012;2023-04-07T15:51:59;12.50;99.90
23544;DHT22;11950;51.230;4.012;2023-04-07T15:54:28;12.40;99.90
23544;DHT22;11950;51.230;4.012;2023-04-07T15:56:55;12.40;99.90
23544;DHT22;11950;51.230;4.012;2023-04-07T15:59:21;12.40;99.90
23544;DHT22;11950;51.230;4.012;2023-04-07T16:01:47;12.40;99.90
23544;DHT22;11950;51.230;4.012;2023-04-07T16:04:13;12.40;99.90
23544;DHT22;11950;51.230;4.012;2023-04-07T16:06:40;12.30;99.90